Time;durP1;ratioP1;P1;durP2;ratioP2;P2;SDS_P1;SDS_P2;PMS_P1;PMS_P2;Temp;Humidity;BMP_temperature;BMP_pressure;BME280_temperature;BME280_humidity;BME280_pressure;Samples;Min_cycle;Max_cycle;Signal;HPM_P1;HPM_P2
2023/09/09 00:00:54;;;;;;;5.60;3.47;;;;;;;21.66;61.56;96756.03;10418687;28;20053;-26
2023/09/09 00:05:55;;;;;;;4.77;3.70;;;;;;;21.67;61.55;96752.63;10412464;28;20506;-26
2023/09/09 00:10:55;;;;;;;3.90;2.57;;;;;;;21.66;61.37;96753.47;10431165;28;20036;-26
2023/09/09 00:15:56;;;;;;;3.43;3.10;;;;;;;21.66;61.43;96755.19;10427192;28;20312;-25
2023/09/09 00:20:56;;;;;;;3.80;3.40;;;;;;;21.68;61.49;96758.56;10440519;28;20044;-26
2023/09/09 00:25:57;;;;;;;4.80;3.77;;;;;;;21.68;61.37;96764.50;10431671;28;20041;-27
2023/09/09 00:30:57;;;;;;;5.85;2.97;;;;;;;21.67;61.48;96761.97;10417356;28;20037;-26
2023/09/09 00:36:02;;;;;;;4.82;3.90;;;;;;;21.69;61.54;96765.34;10434286;28;20493;-26
2023/09/09 00:41:17;;;;;;;4.25;3.40;;;;;;;21.68;61.43;96764.50;10422390;28;20590;-26
2023/09/09 00:46:17;;;;;;;4.03;3.65;;;;;;;21.68;61.63;96761.09;10418825;28;20036;-26
2023/09/09 00:51:18;;;;;;;5.35;3.25;;;;;;;21.69;61.40;96765.34;10419809;28;20040;-26
2023/09/09 00:56:18;;;;;;;7.68;3.90;;;;;;;21.67;61.41;96761.97;10418728;28;20044;-26
2023/09/09 01:01:19;;;;;;;4.57;4.13;;;;;;;21.69;61.42;96765.34;10423563;28;20037;-25
2023/09/09 01:06:21;;;;;;;3.03;2.73;;;;;;;21.66;61.61;96760.28;10430534;28;20032;-26
2023/09/09 01:11:21;;;;;;;5.60;3.65;;;;;;;21.67;61.27;96757.72;10416147;28;20025;-26
2023/09/09 01:16:22;;;;;;;5.32;3.38;;;;;;;21.68;61.21;96758.56;10419273;28;20475;-26
2023/09/09 01:21:27;;;;;;;6.88;3.78;;;;;;;21.68;61.41;96759.41;10412661;28;20388;-26
2023/09/09 01:26:28;;;;;;;3.50;2.97;;;;;;;21.67;61.16;96759.44;10419392;28;20096;-26
2023/09/09 01:31:28;;;;;;;3.13;2.83;;;;;;;21.67;61.45;96765.38;10429588;28;20439;-26
2023/09/09 01:36:29;;;;;;;2.70;2.37;;;;;;;21.66;61.40;96761.13;10423953;28;20033;-26
2023/09/09 01:41:29;;;;;;;2.30;2.10;;;;;;;21.66;61.25;96752.66;10433177;28;20095;-26
2023/09/09 01:46:32;;;;;;;4.17;2.43;;;;;;;21.66;61.16;96755.19;10413299;28;20483;-26
2023/09/09 01:51:34;;;;;;;2.65;2.00;;;;;;;21.64;61.25;96757.72;10417635;28;20029;-26
2023/09/09 01:56:35;;;;;;;4.30;3.65;;;;;;;21.66;61.33;96762.84;10409375;28;20021;-26
2023/09/09 02:01:35;;;;;;;3.10;1.90;;;;;;;21.66;61.18;96768.75;10429532;28;20037;-26
2023/09/09 02:06:36;;;;;;;5.53;3.23;;;;;;;21.68;61.27;96763.66;10420015;28;20042;-26
2023/09/09 02:11:38;;;;;;;4.07;3.13;;;;;;;21.66;61.20;96761.13;10412210;28;20049;-26
2023/09/09 02:16:39;;;;;;;4.07;3.30;;;;;;;21.66;61.18;96758.56;10427260;28;20030;-26
2023/09/09 02:21:42;;;;;;;5.97;3.37;;;;;;;21.66;61.26;96750.09;10432213;28;20029;-26
2023/09/09 02:26:42;;;;;;;2.45;2.13;;;;;;;21.66;61.19;96752.66;10418609;28;20341;-26
2023/09/09 02:31:42;;;;;;;5.07;3.27;;;;;;;21.67;61.08;96754.34;10424417;28;20036;-26
2023/09/09 02:36:45;;;;;;;3.92;3.35;;;;;;;21.67;61.10;96746.69;10414955;28;20037;-26
2023/09/09 02:41:45;;;;;;;5.65;3.88;;;;;;;21.65;61.20;96754.34;10432806;28;20418;-26
2023/09/09 02:46:45;;;;;;;2.83;2.63;;;;;;;21.65;61.11;96748.41;10419453;28;20033;-26
2023/09/09 02:51:46;;;;;;;2.83;2.57;;;;;;;21.65;61.07;96746.69;10409001;28;20038;-26
2023/09/09 02:56:46;;;;;;;5.38;3.25;;;;;;;21.65;61.20;96751.78;10416078;28;20292;-26
2023/09/09 03:01:47;;;;;;;2.93;2.63;;;;;;;21.66;61.03;96748.38;10408541;28;20052;-25
2023/09/09 03:06:47;;;;;;;5.43;2.40;;;;;;;21.65;61.32;96749.25;10418457;28;20039;-26
2023/09/09 03:11:48;;;;;;;5.25;3.30;;;;;;;21.64;61.11;96752.63;10430791;28;20869;-26
2023/09/09 03:16:49;;;;;;;2.28;2.08;;;;;;;21.65;60.80;96743.31;10417113;28;20411;-26
2023/09/09 03:21:52;;;;;;;5.72;4.43;;;;;;;21.67;61.04;96747.53;10428152;28;20041;-26
2023/09/09 03:26:53;;;;;;;5.68;4.10;;;;;;;21.69;61.14;96740.72;10419148;28;20053;-27
2023/09/09 03:31:53;;;;;;;8.43;4.70;;;;;;;21.70;61.14;96736.44;10422628;28;20040;-26
2023/09/09 03:36:54;;;;;;;6.20;4.88;;;;;;;21.70;60.96;96746.63;10410563;28;20515;-25
2023/09/09 03:41:54;;;;;;;5.43;4.90;;;;;;;21.71;61.06;96749.19;10430262;28;20044;-26
2023/09/09 03:46:55;;;;;;;4.90;4.03;;;;;;;21.71;61.02;96750.91;10427326;28;20101;-25
2023/09/09 03:51:55;;;;;;;5.15;4.40;;;;;;;21.70;61.09;96750.03;10426006;28;20449;-26
2023/09/09 03:56:56;;;;;;;4.28;3.88;;;;;;;21.68;61.02;96751.78;10418210;28;20036;-26
2023/09/09 04:01:57;;;;;;;7.15;4.97;;;;;;;21.69;60.77;96750.06;10429979;28;20033;-25
2023/09/09 04:06:58;;;;;;;4.97;4.45;;;;;;;21.70;60.95;96754.28;10423642;28;20032;-26
2023/09/09 04:11:58;;;;;;;4.65;4.22;;;;;;;21.70;61.08;96756.84;10434912;28;20029;-26
2023/09/09 04:16:58;;;;;;;3.42;3.13;;;;;;;21.68;60.82;96759.41;10429494;28;20026;-26
2023/09/09 04:21:59;;;;;;;5.00;4.50;;;;;;;21.74;61.69;96758.50;10433406;28;20563;-26
2023/09/09 04:27:00;;;;;;;6.80;4.93;;;;;;;21.71;61.09;96748.34;10431428;28;20342;-26
2023/09/09 04:32:00;;;;;;;6.18;5.00;;;;;;;21.71;60.93;96754.28;10436302;28;20094;-26
2023/09/09 04:37:03;;;;;;;8.15;4.65;;;;;;;21.70;61.04;96757.69;10418049;28;20523;-26
2023/09/09 04:42:04;;;;;;;5.00;4.60;;;;;;;21.69;60.96;96753.47;10434814;28;20056;-26
2023/09/09 04:47:04;;;;;;;4.97;4.47;;;;;;;21.68;61.01;96759.41;10425874;28;20108;-26
2023/09/09 04:52:05;;;;;;;5.05;4.55;;;;;;;21.69;60.95;96761.09;10422216;28;20044;-31
2023/09/09 04:57:06;;;;;;;5.38;2.85;;;;;;;21.69;60.90;96761.09;10444576;28;20025;-26
2023/09/09 05:02:06;;;;;;;4.47;4.00;;;;;;;21.68;60.95;96754.31;10414992;28;20032;-26
2023/09/09 05:07:09;;;;;;;2.70;2.22;;;;;;;21.68;60.83;96763.66;10434946;28;20030;-26
2023/09/09 05:12:10;;;;;;;4.65;3.75;;;;;;;21.68;60.89;96758.56;10428788;28;20071;-26
2023/09/09 05:17:11;;;;;;;2.40;2.20;;;;;;;21.67;61.16;96765.38;10424558;28;20404;-26
2023/09/09 05:22:12;;;;;;;2.17;1.70;;;;;;;21.67;61.04;96765.38;10422349;28;20034;-26
2023/09/09 05:27:12;;;;;;;1.83;1.73;;;;;;;21.67;61.00;96773.03;10425556;28;20033;-26
2023/09/09 05:32:13;;;;;;;2.30;1.70;;;;;;;21.68;60.83;96773.84;10430345;28;20284;-26
2023/09/09 05:37:14;;;;;;;1.88;1.52;;;;;;;21.68;61.02;96778.94;10420129;28;20032;-26
2023/09/09 05:42:14;;;;;;;4.03;3.63;;;;;;;21.67;60.99;96780.66;10414148;28;20045;-26
2023/09/09 05:47:15;;;;;;;2.30;2.10;;;;;;;21.66;60.93;96781.50;10419993;28;20379;-26
2023/09/09 05:52:16;;;;;;;2.85;2.55;;;;;;;21.66;60.83;96781.50;10434098;28;20390;-26
2023/09/09 05:57:16;;;;;;;3.13;2.83;;;;;;;21.68;61.09;96784.91;10429155;28;20021;-26
2023/09/09 06:02:17;;;;;;;8.25;3.90;;;;;;;21.67;61.05;96788.31;10423659;28;20407;-26
2023/09/09 06:07:19;;;;;;;6.47;4.57;;;;;;;21.76;63.45;96789.91;10427117;28;20148;-26
2023/09/09 06:12:19;;;;;;;6.10;5.25;;;;;;;22.08;65.85;96795.44;10402865;28;20025;-26
2023/09/09 06:17:19;;;;;;;7.28;6.15;;;;;;;22.11;65.41;96806.47;10422064;28;20021;-26
2023/09/09 06:22:20;;;;;;;7.57;5.68;;;;;;;22.14;65.67;96800.47;10428630;28;20040;-25
2023/09/09 06:27:20;;;;;;;8.80;5.83;;;;;;;22.11;65.18;96806.47;10427437;28;20483;-26
2023/09/09 06:32:21;;;;;;;5.85;5.25;;;;;;;22.03;65.21;96813.34;10418452;28;20292;-26
2023/09/09 06:37:21;;;;;;;6.93;5.00;;;;;;;21.86;63.12;96810.16;10420479;28;20083;-26
2023/09/09 06:42:22;;;;;;;5.93;5.27;;;;;;;21.94;65.57;96821.13;10427743;28;20291;-26
2023/09/09 06:47:25;;;;;;;8.73;5.32;;;;;;;21.87;64.48;96819.50;10427468;28;20183;-26
2023/09/09 06:52:26;;;;;;;4.47;4.05;;;;;;;21.84;63.01;96821.25;10425620;28;20097;-26
2023/09/09 06:57:26;;;;;;;3.90;3.47;;;;;;;21.84;62.15;96829.75;10414848;28;20035;-26
2023/09/09 07:02:27;;;;;;;4.70;4.10;;;;;;;21.79;62.27;96822.97;10408905;28;20403;-26
2023/09/09 07:07:27;;;;;;;9.47;5.97;;;;;;;21.99;66.39;96837.19;10417282;28;20036;-26
2023/09/09 07:12:27;;;;;;;7.23;4.87;;;;;;;21.89;63.46;96840.72;10431894;28;20086;-26
2023/09/09 07:17:28;;;;;;;6.13;4.17;;;;;;;21.78;62.58;96831.50;10428831;28;20028;-26
2023/09/09 07:22:28;;;;;;;5.87;4.57;;;;;;;21.79;62.28;96843.38;10423849;28;20033;-26
2023/09/09 07:27:28;;;;;;;6.30;4.97;;;;;;;21.77;62.11;96845.97;10435802;28;20041;-26
2023/09/09 07:32:29;;;;;;;8.03;5.30;;;;;;;21.76;62.74;96839.19;10415031;28;20032;-26
2023/09/09 07:37:29;;;;;;;7.87;5.70;;;;;;;21.77;62.44;96835.75;10414930;28;20033;-28
2023/09/09 07:42:29;;;;;;;5.43;4.87;;;;;;;21.73;61.66;96834.09;10420953;28;20093;-27
2023/09/09 07:47:30;;;;;;;7.57;5.23;;;;;;;21.75;62.21;96832.41;10415898;28;20033;-26
2023/09/09 07:52:30;;;;;;;5.43;4.93;;;;;;;21.74;61.38;96834.94;10429435;28;20079;-26
2023/09/09 07:57:30;;;;;;;6.50;5.90;;;;;;;21.69;61.77;96832.47;10411213;28;20100;-26
2023/09/09 08:02:31;;;;;;;6.03;5.33;;;;;;;21.75;62.59;96839.19;10430703;28;20507;-26
2023/09/09 08:07:32;;;;;;;12.60;6.57;;;;;;;21.73;62.50;96834.09;10429758;28;20480;-26
2023/09/09 08:12:32;;;;;;;5.97;5.30;;;;;;;21.73;61.70;96838.38;10428305;28;20395;-26
2023/09/09 08:17:33;;;;;;;8.23;4.07;;;;;;;21.70;63.51;96839.25;10400847;28;20712;-26
2023/09/09 08:22:34;;;;;;;6.97;4.13;;;;;;;21.69;62.30;96834.16;10429010;28;20034;-29
2023/09/09 08:27:35;;;;;;;5.72;4.07;;;;;;;21.68;61.65;96833.31;10425720;28;20037;-30
2023/09/09 08:32:36;;;;;;;8.57;4.93;;;;;;;21.73;61.85;96833.28;10435192;28;20487;-27
2023/09/09 08:37:36;;;;;;;4.90;4.05;;;;;;;21.72;61.53;96841.78;10433652;28;20108;-30
2023/09/09 08:43:05;;;;;;;4.00;3.07;;;;;;;21.74;61.79;96837.50;10434541;28;20025;-27
2023/09/09 08:48:07;;;;;;;6.00;4.20;;;;;;;21.75;63.97;96832.41;10435050;28;20692;-27
2023/09/09 08:53:12;;;;;;;5.05;2.38;;;;;;;21.76;61.96;96834.09;10441481;28;20513;-25
2023/09/09 08:58:14;;;;;;;10.02;5.30;;;;;;;21.77;61.83;96829.81;10432355;28;20032;-27
2023/09/09 09:03:15;;;;;;;4.07;3.67;;;;;;;21.78;62.43;96834.91;10436021;28;20495;-26
2023/09/09 09:08:15;;;;;;;11.68;6.25;;;;;;;21.79;62.07;96838.28;10411910;28;20442;-25
2023/09/09 09:13:16;;;;;;;15.27;5.40;;;;;;;21.78;63.09;96827.25;10422461;28;20034;-26
2023/09/09 09:18:16;;;;;;;6.97;4.25;;;;;;;21.80;64.71;96829.78;10413369;28;20101;-26
2023/09/09 09:23:17;;;;;;;7.82;4.50;;;;;;;21.77;62.06;96830.66;10433408;28;20464;-26
2023/09/09 09:28:17;;;;;;;7.85;5.18;;;;;;;21.76;61.88;96823.88;10434928;28;20033;-26
2023/09/09 09:33:23;;;;;;;7.00;4.73;;;;;;;21.76;61.85;96834.09;10420046;28;20036;-26
2023/09/09 09:38:23;;;;;;;10.27;5.40;;;;;;;21.75;61.60;96836.63;10421219;28;20091;-25
2023/09/09 09:43:25;;;;;;;5.60;4.68;;;;;;;21.74;61.75;96825.59;10427141;28;20060;-26
2023/09/09 09:48:26;;;;;;;8.35;5.70;;;;;;;21.74;61.64;96817.94;10419892;28;20067;-26
2023/09/09 09:53:27;;;;;;;7.53;5.20;;;;;;;21.76;61.67;96823.03;10414189;28;20040;-26
2023/09/09 09:58:30;;;;;;;11.93;5.40;;;;;;;21.77;61.62;96824.72;10420633;28;20059;-26
2023/09/09 10:03:41;;;;;;;9.10;4.93;;;;;;;21.75;61.63;96819.66;10410992;28;20280;-25
2023/09/09 10:08:48;;;;;;;7.53;4.85;;;;;;;21.74;61.78;96823.03;10422724;28;20029;-26
2023/09/09 10:14:09;;;;;;;5.70;4.88;;;;;;;21.74;61.62;96814.56;10420404;28;20039;-26
2023/09/09 10:19:13;;;;;;;7.45;4.65;;;;;;;21.75;61.55;96814.56;10425571;28;20641;-26
2023/09/09 10:24:15;;;;;;;5.43;4.70;;;;;;;21.75;61.71;96812.00;10414954;28;20045;-26
2023/09/09 10:29:17;;;;;;;6.30;4.95;;;;;;;21.73;61.49;96811.16;10410117;28;20396;-26
2023/09/09 10:34:20;;;;;;;9.15;5.32;;;;;;;21.75;61.62;96803.50;10430930;28;20033;-26
2023/09/09 10:39:24;;;;;;;4.85;4.03;;;;;;;21.77;62.34;96809.41;10415562;28;20033;-26
2023/09/09 10:44:25;;;;;;;5.80;4.57;;;;;;;21.77;61.81;96802.63;10417393;28;20040;-25
2023/09/09 10:49:27;;;;;;;5.93;4.80;;;;;;;21.77;62.22;96794.97;10431310;28;20037;-26
2023/09/09 10:54:27;;;;;;;5.25;3.78;;;;;;;21.76;64.06;96793.31;10415895;28;20083;-26
2023/09/09 10:59:33;;;;;;;6.63;3.20;;;;;;;21.78;62.05;96796.66;10411144;28;20025;-26
2023/09/09 11:04:35;;;;;;;;;;;;;;;21.77;61.62;96800.09;10415572;28;20284;-26
2023/09/09 11:09:37;;;;;;;4.95;4.50;;;;;;;21.77;61.78;96799.22;10418054;28;19917;-26
2023/09/09 11:14:41;;;;;;;8.75;4.70;;;;;;;21.76;61.93;96800.09;10409968;28;20041;-25
2023/09/09 11:19:43;;;;;;;3.95;3.55;;;;;;;21.73;62.52;96795.03;10418168;28;20026;-26
2023/09/09 11:24:43;;;;;;;6.40;5.15;;;;;;;21.80;63.40;96789.84;10420713;28;20060;-26
2023/09/09 11:29:51;;;;;;;5.10;4.63;;;;;;;21.78;63.66;96781.38;10414274;28;20037;-26
2023/09/09 11:34:53;;;;;;;5.45;4.95;;;;;;;21.79;62.28;96790.72;10414339;28;20042;-25
2023/09/09 11:39:54;;;;;;;5.38;4.88;;;;;;;21.80;62.16;96779.66;10424443;28;20042;-26
2023/09/09 11:44:54;;;;;;;8.13;5.53;;;;;;;21.83;62.79;96789.81;10407554;28;20045;-26
2023/09/09 11:49:55;;;;;;;7.27;5.43;;;;;;;21.83;62.29;96784.72;10416415;28;20042;-26
2023/09/09 11:54:55;;;;;;;6.73;5.53;;;;;;;21.83;62.83;96777.09;10421318;28;20044;-26
2023/09/09 11:59:57;;;;;;;6.70;6.03;;;;;;;21.77;62.69;96761.84;10407617;28;20069;-26
2023/09/09 12:05:00;;;;;;;6.45;5.60;;;;;;;21.87;63.51;96782.97;10425824;28;20651;-26
2023/09/09 12:10:02;;;;;;;6.70;5.63;;;;;;;21.88;64.54;96788.03;10423655;28;20167;-25
2023/09/09 12:15:04;;;;;;;7.25;5.80;;;;;;;21.89;65.36;96776.97;10422073;28;20151;-26
2023/09/09 12:20:05;;;;;;;5.38;4.88;;;;;;;21.88;63.76;96779.56;10429027;28;20037;-26
2023/09/09 12:25:06;;;;;;;5.90;5.40;;;;;;;21.88;63.88;96785.50;10414377;28;20131;-25
2023/09/09 12:30:28;;;;;;;5.90;5.30;;;;;;;21.87;63.64;96773.63;10414923;28;20056;-26
2023/09/09 12:35:32;;;;;;;6.25;5.25;;;;;;;21.87;63.25;96773.63;10419602;28;20127;-26
2023/09/09 12:40:48;;;;;;;5.80;5.03;;;;;;;21.85;62.44;96770.25;10423847;28;20033;-26
2023/09/09 12:46:04;;;;;;;5.73;5.23;;;;;;;21.85;63.43;96780.44;10416304;28;20041;-26
2023/09/09 12:51:04;;;;;;;5.85;5.25;;;;;;;21.75;63.71;96748.28;10421970;28;20124;-26
2023/09/09 12:56:05;;;;;;;4.90;4.00;;;;;;;21.84;63.84;96770.25;10426109;28;20026;-25
2023/09/09 13:01:06;;;;;;;5.80;3.83;;;;;;;21.83;63.03;96773.69;10413599;28;20363;-25
2023/09/09 13:06:07;;;;;;;4.88;4.45;;;;;;;21.86;63.50;96766.84;10423092;28;20534;-25
2023/09/09 13:11:07;;;;;;;9.30;5.45;;;;;;;21.85;62.87;96775.34;10419584;28;20060;-26
2023/09/09 13:16:08;;;;;;;6.68;5.13;;;;;;;21.86;62.88;96758.34;10412118;28;20109;-26
2023/09/09 13:21:08;;;;;;;4.82;4.32;;;;;;;21.84;62.74;96760.91;10414647;28;20041;-25
2023/09/09 13:26:08;;;;;;;6.53;4.75;;;;;;;21.84;62.89;96757.50;10433686;28;20384;-26
2023/09/09 13:31:09;;;;;;;4.73;4.20;;;;;;;21.83;62.49;96749.03;10420829;28;20047;-26
2023/09/09 13:36:09;;;;;;;7.50;5.33;;;;;;;21.82;62.52;96749.88;10432881;28;20567;-26
2023/09/09 13:41:09;;;;;;;5.23;4.73;;;;;;;21.82;62.53;96749.06;10416701;28;20037;-26
2023/09/09 13:46:10;;;;;;;6.03;4.40;;;;;;;21.81;62.50;96748.19;10413145;28;20072;-26
2023/09/09 13:51:11;;;;;;;5.50;3.50;;;;;;;21.80;63.49;96738.03;10411204;28;20042;-27
2023/09/09 13:56:11;;;;;;;6.90;2.97;;;;;;;21.82;63.79;96736.31;10415529;28;20479;-25
2023/09/09 14:01:11;;;;;;;31.03;4.97;;;;;;;21.84;63.59;96729.47;10414900;28;20392;-26
2023/09/09 14:06:12;;;;;;;42.27;6.47;;;;;;;21.83;63.16;96732.88;10422341;28;20044;-25
2023/09/09 14:11:12;;;;;;;38.30;6.03;;;;;;;21.83;63.13;96727.78;10420063;28;20056;-26
2023/09/09 14:16:12;;;;;;;39.73;7.07;;;;;;;21.82;62.57;96728.66;10419759;28;20284;-25
2023/09/09 14:21:14;;;;;;;34.17;6.40;;;;;;;21.84;63.26;96730.34;10419721;28;20403;-26
2023/09/09 14:26:16;;;;;;;25.75;6.72;;;;;;;21.84;62.60;96729.47;10427643;28;20518;-25
2023/09/09 14:31:18;;;;;;;15.15;4.97;;;;;;;21.80;62.37;96726.13;10416887;28;20033;-25
2023/09/09 14:36:19;;;;;;;10.00;3.70;;;;;;;21.79;62.42;96710.84;10413842;28;20406;-26
2023/09/09 14:41:19;;;;;;;11.82;4.03;;;;;;;21.77;63.18;96710.88;10411885;28;20036;-27
2023/09/09 14:46:24;;;;;;;8.30;3.78;;;;;;;21.81;62.78;96714.22;10417784;28;20116;-26
2023/09/09 14:51:28;;;;;;;9.27;3.80;;;;;;;21.83;63.62;96718.47;10421714;28;20071;-26
2023/09/09 14:56:29;;;;;;;9.25;3.80;;;;;;;21.86;63.23;96717.53;10414442;28;20032;-25
2023/09/09 15:01:29;;;;;;;10.30;4.35;;;;;;;21.85;63.03;96716.72;10420111;28;20545;-25
2023/09/09 15:06:30;;;;;;;7.13;4.17;;;;;;;21.86;63.28;96720.94;10421557;28;20096;-25
2023/09/09 15:11:30;;;;;;;9.43;4.47;;;;;;;21.84;63.26;96715.03;10411647;28;20302;-26
2023/09/09 15:16:48;;;;;;;5.75;2.70;;;;;;;21.86;63.55;96718.41;10419938;28;20288;-25
2023/09/09 15:21:48;;;;;;;6.30;2.90;;;;;;;21.86;62.91;96712.44;10424711;28;20503;-25
2023/09/09 15:26:50;;;;;;;3.20;2.90;;;;;;;21.88;63.28;96711.56;10417371;28;20029;-26
2023/09/09 15:31:50;;;;;;;4.90;2.63;;;;;;;21.91;62.57;96721.72;10418369;28;20034;-24
2023/09/09 15:36:51;;;;;;;3.37;2.47;;;;;;;21.91;62.60;96719.16;10415955;28;20029;-27
2023/09/09 15:41:53;;;;;;;3.00;2.53;;;;;;;21.92;62.68;96720.88;10423460;28;20045;-26
2023/09/09 15:46:54;;;;;;;4.22;2.63;;;;;;;21.94;62.58;96716.59;10421301;28;20037;-27
2023/09/09 15:51:54;;;;;;;4.20;2.13;;;;;;;21.92;62.71;96720.88;10418403;28;20045;-26
2023/09/09 15:56:54;;;;;;;4.63;2.47;;;;;;;21.93;62.99;96714.91;10426970;28;20037;-25
2023/09/09 16:01:55;;;;;;;3.07;2.20;;;;;;;21.92;62.43;96718.34;10419957;28;20500;-27
2023/09/09 16:06:55;;;;;;;3.28;2.35;;;;;;;21.91;62.47;96719.16;10431195;28;20044;-26
2023/09/09 16:11:56;;;;;;;4.40;2.93;;;;;;;21.91;62.78;96716.63;10422620;28;20091;-25
2023/09/09 16:16:58;;;;;;;3.90;2.53;;;;;;;21.92;62.50;96720.03;10428163;28;20041;-27
2023/09/09 16:21:59;;;;;;;4.22;2.30;;;;;;;21.93;62.73;96720.00;10431886;28;20045;-25
2023/09/09 16:26:59;;;;;;;2.53;2.33;;;;;;;21.90;62.65;96725.13;10420663;28;20045;-26
2023/09/09 16:32:00;;;;;;;9.17;3.60;;;;;;;21.92;63.24;96722.56;10426543;28;20525;-25
2023/09/09 16:37:00;;;;;;;4.60;2.33;;;;;;;21.91;62.74;96726.81;10427970;28;20423;-25
2023/09/09 16:42:00;;;;;;;6.17;2.43;;;;;;;21.94;63.08;96725.94;10433395;28;20120;-27
2023/09/09 16:47:01;;;;;;;3.83;2.17;;;;;;;21.96;62.85;96731.84;10419105;28;20032;-26
2023/09/09 16:52:02;;;;;;;5.03;2.58;;;;;;;21.98;62.62;96740.34;10430341;28;20029;-26
2023/09/09 16:57:06;;;;;;;3.83;2.50;;;;;;;21.97;62.93;96736.94;10421794;28;20057;-26
2023/09/09 17:02:08;;;;;;;3.47;2.40;;;;;;;21.97;62.83;96742.03;10417626;28;20048;-23
2023/09/09 17:07:08;;;;;;;6.00;2.55;;;;;;;21.97;62.60;96742.03;10425561;28;20033;-26
2023/09/09 17:12:09;;;;;;;3.53;2.20;;;;;;;21.98;62.73;96748.00;10416939;28;20403;-26
2023/09/09 17:17:09;;;;;;;2.97;2.63;;;;;;;21.97;62.74;96752.22;10426610;28;20103;-25
2023/09/09 17:22:10;;;;;;;4.33;2.83;;;;;;;21.97;62.90;96748.84;10436105;28;20037;-26
2023/09/09 17:27:10;;;;;;;9.90;3.55;;;;;;;21.98;63.70;96751.38;10413071;28;20172;-26
2023/09/09 17:32:11;;;;;;;3.70;2.55;;;;;;;21.99;62.90;96755.59;10418651;28;20512;-25
2023/09/09 17:37:11;;;;;;;5.23;2.87;;;;;;;21.99;63.13;96752.22;10416650;28;20501;-26
2023/09/09 17:42:11;;;;;;;7.90;2.77;;;;;;;21.98;63.03;96761.56;10427548;28;20044;-26
2023/09/09 17:47:12;;;;;;;5.93;2.90;;;;;;;21.97;63.28;96767.53;10419176;28;20292;-25
2023/09/09 17:52:12;;;;;;;5.13;2.47;;;;;;;21.96;63.28;96773.50;10424473;28;20028;-25
2023/09/09 17:57:12;;;;;;;6.20;2.87;;;;;;;21.97;63.18;96774.34;10421501;28;20378;-26
2023/09/09 18:02:13;;;;;;;5.47;2.80;;;;;;;21.94;63.20;96775.22;10424371;28;20276;-26
2023/09/09 18:07:13;;;;;;;7.27;3.60;;;;;;;21.91;63.56;96776.97;10409970;28;20030;-25
2023/09/09 18:12:13;;;;;;;3.63;3.17;;;;;;;21.95;63.44;96784.56;10419419;28;20087;-26
2023/09/09 18:17:14;;;;;;;6.97;4.07;;;;;;;21.95;63.56;96794.75;10404960;28;20044;-25
2023/09/09 18:22:14;;;;;;;2.58;2.38;;;;;;;21.93;63.58;96793.94;10419357;28;20037;-25
2023/09/09 18:27:15;;;;;;;2.92;2.53;;;;;;;21.97;63.72;96787.94;10413817;28;20052;-26
2023/09/09 18:32:15;;;;;;;6.90;2.70;;;;;;;21.98;63.51;96794.72;10414367;28;20180;-25
2023/09/09 18:37:16;;;;;;;4.80;3.23;;;;;;;21.99;63.61;96801.50;10420698;28;20040;-26
2023/09/09 18:42:16;;;;;;;3.20;2.63;;;;;;;21.99;63.35;96805.75;10420236;28;20029;-26
2023/09/09 18:47:17;;;;;;;7.13;3.65;;;;;;;22.00;63.53;96810.00;10415476;28;20415;-25
2023/09/09 18:52:18;;;;;;;7.83;3.63;;;;;;;21.97;63.21;96815.16;10418182;28;20037;-25
2023/09/09 18:57:19;;;;;;;6.70;3.28;;;;;;;21.96;63.20;96816.84;10415545;28;20041;-25
2023/09/09 19:02:22;;;;;;;5.13;2.63;;;;;;;21.96;63.96;96826.19;10415905;28;20065;-25
2023/09/09 19:07:34;;;;;;;8.88;4.50;;;;;;;21.93;63.54;96821.13;10410129;28;20407;-25
2023/09/09 19:12:35;;;;;;;6.38;2.65;;;;;;;21.96;63.76;96831.28;10411120;28;20037;-25
2023/09/09 19:17:35;;;;;;;5.78;3.38;;;;;;;21.95;63.78;96835.56;10414653;28;20056;-26
2023/09/09 19:22:36;;;;;;;8.25;3.72;;;;;;;21.95;63.39;96840.66;10417584;28;20418;-28
2023/09/09 19:27:37;;;;;;;6.72;3.20;;;;;;;21.97;63.64;96833.00;10412106;28;20504;-26
2023/09/09 19:32:37;;;;;;;7.40;3.50;;;;;;;21.94;63.66;96828.78;10414530;28;20041;-26
2023/09/09 19:37:38;;;;;;;6.43;3.30;;;;;;;21.94;63.62;96833.00;10404066;28;20308;-26
2023/09/09 19:42:38;;;;;;;4.97;3.50;;;;;;;21.94;63.61;96844.06;10411644;28;20033;-26
2023/09/09 19:47:38;;;;;;;14.77;3.50;;;;;;;21.89;63.71;96832.25;10414807;28;20493;-26
2023/09/09 19:52:39;;;;;;;8.30;3.55;;;;;;;21.93;63.15;96851.72;10420657;28;20091;-26
2023/09/09 19:57:39;;;;;;;5.90;3.20;;;;;;;21.93;63.53;96862.78;10405054;28;20055;-26
2023/09/09 20:02:39;;;;;;;5.33;3.63;;;;;;;21.94;63.44;96859.38;10410585;28;20070;-26
2023/09/09 20:07:40;;;;;;;5.57;3.03;;;;;;;21.94;64.05;96854.25;10417248;28;20037;-25
2023/09/09 20:12:40;;;;;;;8.27;3.23;;;;;;;21.95;63.54;96850.84;10425520;28;20033;-26
2023/09/09 20:17:41;;;;;;;12.85;4.30;;;;;;;21.93;63.23;96847.47;10412284;28;20036;-25
2023/09/09 20:22:42;;;;;;;7.43;3.83;;;;;;;21.96;63.30;96852.53;10422939;28;20457;-26
2023/09/09 20:27:46;;;;;;;9.80;3.72;;;;;;;21.95;63.44;96855.94;10419783;28;20484;-25
2023/09/09 20:32:47;;;;;;;7.93;2.95;;;;;;;21.94;62.95;96851.72;10423040;28;20341;-26
2023/09/09 20:37:50;;;;;;;3.70;2.75;;;;;;;21.92;63.57;96853.44;10410170;28;20033;-26
2023/09/09 20:42:52;;;;;;;3.60;2.55;;;;;;;21.90;63.20;96847.50;10416566;28;20511;-26
2023/09/09 20:47:53;;;;;;;4.38;2.80;;;;;;;21.93;63.11;96852.56;10432769;28;20120;-26
2023/09/09 20:52:54;;;;;;;4.50;2.83;;;;;;;21.94;63.18;96854.25;10419188;28;20143;-26
2023/09/09 20:57:55;;;;;;;5.65;3.03;;;;;;;21.93;63.10;96852.56;10418732;28;20029;-26
2023/09/09 21:02:55;;;;;;;5.20;3.17;;;;;;;21.93;63.13;96851.72;10418342;28;20033;-25
2023/09/09 21:07:55;;;;;;;4.88;3.90;;;;;;;21.94;63.23;96850.84;10429321;28;20037;-26
2023/09/09 21:12:56;;;;;;;3.53;2.73;;;;;;;21.93;62.99;96847.47;10414097;28;20099;-25
2023/09/09 21:17:56;;;;;;;4.22;2.67;;;;;;;21.92;62.93;96856.00;10413320;28;20025;-25
2023/09/09 21:22:57;;;;;;;4.03;2.97;;;;;;;21.93;63.10;96857.69;10425958;28;20357;-25
2023/09/09 21:27:58;;;;;;;4.33;3.37;;;;;;;21.92;62.86;96860.22;10420886;28;20033;-26
2023/09/09 21:32:58;;;;;;;4.07;2.70;;;;;;;21.92;62.78;96855.13;10432437;28;20134;-27
2023/09/09 21:37:59;;;;;;;4.13;2.43;;;;;;;21.93;63.13;96852.56;10417368;28;20163;-26
2023/09/09 21:42:59;;;;;;;5.03;3.03;;;;;;;21.93;62.94;96852.56;10419328;28;20029;-26
2023/09/09 21:47:59;;;;;;;4.47;2.77;;;;;;;21.91;62.76;96849.19;10421259;28;20486;-25
2023/09/09 21:53:00;;;;;;;3.90;2.53;;;;;;;21.92;62.67;96850.03;10421312;28;20029;-26
2023/09/09 21:58:00;;;;;;;3.60;2.20;;;;;;;21.90;62.71;96847.50;10416958;28;20439;-26
2023/09/09 22:03:00;;;;;;;3.47;2.57;;;;;;;21.91;62.84;96845.81;10427639;28;20032;-26
2023/09/09 22:08:01;;;;;;;5.07;2.70;;;;;;;21.92;62.81;96847.50;10425200;28;20044;-25
2023/09/09 22:13:01;;;;;;;2.67;2.30;;;;;;;21.91;62.67;96838.16;10416865;28;20029;-26
2023/09/09 22:18:01;;;;;;;4.43;2.57;;;;;;;21.92;62.54;96838.16;10415791;28;20405;-27
2023/09/09 22:23:03;;;;;;;3.47;3.13;;;;;;;21.93;62.58;96838.97;10414960;28;20037;-25
2023/09/09 22:28:04;;;;;;;3.25;2.67;;;;;;;21.92;62.67;96834.75;10412699;28;20299;-26
2023/09/09 22:33:04;;;;;;;3.60;2.92;;;;;;;21.92;62.64;96835.59;10418740;28;20837;-26
2023/09/09 22:38:05;;;;;;;4.45;3.33;;;;;;;21.92;62.62;96850.91;10414292;28;20025;-26
2023/09/09 22:43:05;;;;;;;5.17;3.07;;;;;;;21.92;62.36;96840.69;10426394;28;20029;-26
2023/09/09 22:48:06;;;;;;;3.27;2.60;;;;;;;21.91;62.59;96841.53;10411944;28;20037;-26
2023/09/09 22:53:06;;;;;;;2.53;2.33;;;;;;;21.92;62.60;96840.69;10405638;28;20037;-26
2023/09/09 22:58:06;;;;;;;4.67;2.47;;;;;;;21.88;62.49;96838.19;10419416;28;20033;-25
2023/09/09 23:03:07;;;;;;;3.83;3.07;;;;;;;21.93;62.28;96838.97;10410268;28;20407;-26
2023/09/09 23:08:08;;;;;;;4.83;2.73;;;;;;;21.91;62.29;96843.25;10414171;28;20033;-27
2023/09/09 23:13:09;;;;;;;4.75;3.30;;;;;;;21.92;62.51;96843.25;10414053;28;20343;-26
2023/09/09 23:18:09;;;;;;;3.45;2.65;;;;;;;21.92;62.38;96845.78;10408005;28;20040;-25